sensor_id;sensor_type;location;lat;lon;timestamp;P1;durP1;ratioP1;P2;durP2;ratioP2
24223;SDS011;12359;49.716;9.212;2022-08-19T00:00:25;15.32;;;13.73;;
24223;SDS011;12359;49.716;9.212;2022-08-19T00:02:52;15.80;;;14.15;;
24223;SDS011;12359;49.716;9.212;2022-08-19T00:05:19;16.30;;;14.60;;
24223;SDS011;12359;49.716;9.212;2022-08-19T00:07:45;15.88;;;14.18;;
24223;SDS011;12359;49.716;9.212;2022-08-19T00:10:12;16.83;;;14.95;;
24223;SDS011;12359;49.716;9.212;2022-08-19T00:12:40;16.95;;;15.25;;
24223;SDS011;12359;49.716;9.212;2022-08-19T00:15:07;17.25;;;15.52;;
24223;SDS011;12359;49.716;9.212;2022-08-19T00:17:38;16.80;;;14.63;;
24223;SDS011;12359;49.716;9.212;2022-08-19T00:20:05;16.13;;;14.48;;
24223;SDS011;12359;49.716;9.212;2022-08-19T00:22:32;15.65;;;14.13;;
24223;SDS011;12359;49.716;9.212;2022-08-19T00:24:59;17.17;;;15.07;;
24223;SDS011;12359;49.716;9.212;2022-08-19T00:27:25;17.20;;;15.38;;
24223;SDS011;12359;49.716;9.212;2022-08-19T00:29:50;16.83;;;15.10;;
24223;SDS011;12359;49.716;9.212;2022-08-19T00:32:16;17.48;;;15.60;;
24223;SDS011;12359;49.716;9.212;2022-08-19T00:34:42;15.95;;;14.25;;
24223;SDS011;12359;49.716;9.212;2022-08-19T00:37:08;19.27;;;14.60;;
24223;SDS011;12359;49.716;9.212;2022-08-19T00:39:34;17.38;;;15.48;;
24223;SDS011;12359;49.716;9.212;2022-08-19T00:42:00;16.65;;;14.88;;
24223;SDS011;12359;49.716;9.212;2022-08-19T00:44:27;17.10;;;15.20;;
24223;SDS011;12359;49.716;9.212;2022-08-19T00:46:56;16.33;;;14.40;;
24223;SDS011;12359;49.716;9.212;2022-08-19T00:49:31;17.60;;;14.93;;
24223;SDS011;12359;49.716;9.212;2022-08-19T00:52:16;16.38;;;14.63;;
24223;SDS011;12359;49.716;9.212;2022-08-19T00:54:47;15.65;;;13.98;;
24223;SDS011;12359;49.716;9.212;2022-08-19T00:57:15;17.38;;;15.57;;
24223;SDS011;12359;49.716;9.212;2022-08-19T00:59:44;16.60;;;14.90;;
24223;SDS011;12359;49.716;9.212;2022-08-19T01:02:12;17.42;;;15.48;;
24223;SDS011;12359;49.716;9.212;2022-08-19T01:04:39;17.08;;;15.27;;
24223;SDS011;12359;49.716;9.212;2022-08-19T01:07:05;16.50;;;14.90;;
24223;SDS011;12359;49.716;9.212;2022-08-19T01:09:31;19.35;;;16.20;;
24223;SDS011;12359;49.716;9.212;2022-08-19T01:11:58;19.60;;;17.08;;
24223;SDS011;12359;49.716;9.212;2022-08-19T01:14:24;17.83;;;15.63;;
24223;SDS011;12359;49.716;9.212;2022-08-19T01:16:50;18.75;;;15.10;;
24223;SDS011;12359;49.716;9.212;2022-08-19T01:19:29;17.42;;;15.52;;
24223;SDS011;12359;49.716;9.212;2022-08-19T01:24:49;18.13;;;15.75;;
24223;SDS011;12359;49.716;9.212;2022-08-19T01:27:16;16.10;;;14.18;;
24223;SDS011;12359;49.716;9.212;2022-08-19T01:29:43;18.10;;;15.82;;
24223;SDS011;12359;49.716;9.212;2022-08-19T01:32:14;18.73;;;16.05;;
24223;SDS011;12359;49.716;9.212;2022-08-19T01:34:41;17.27;;;15.48;;
24223;SDS011;12359;49.716;9.212;2022-08-19T01:37:11;18.92;;;15.38;;
24223;SDS011;12359;49.716;9.212;2022-08-19T01:39:38;18.17;;;15.82;;
24223;SDS011;12359;49.716;9.212;2022-08-19T01:42:06;17.90;;;15.82;;
24223;SDS011;12359;49.716;9.212;2022-08-19T01:44:34;20.33;;;15.13;;
24223;SDS011;12359;49.716;9.212;2022-08-19T01:47:01;17.73;;;15.32;;
24223;SDS011;12359;49.716;9.212;2022-08-19T01:49:28;17.75;;;14.82;;
24223;SDS011;12359;49.716;9.212;2022-08-19T01:51:54;17.10;;;15.30;;
24223;SDS011;12359;49.716;9.212;2022-08-19T01:54:21;18.13;;;15.25;;
24223;SDS011;12359;49.716;9.212;2022-08-19T01:56:48;17.70;;;14.82;;
24223;SDS011;12359;49.716;9.212;2022-08-19T01:59:17;17.23;;;15.52;;
24223;SDS011;12359;49.716;9.212;2022-08-19T02:01:46;20.88;;;16.67;;
24223;SDS011;12359;49.716;9.212;2022-08-19T02:04:11;19.42;;;15.55;;
24223;SDS011;12359;49.716;9.212;2022-08-19T02:06:37;18.23;;;15.40;;
24223;SDS011;12359;49.716;9.212;2022-08-19T02:09:07;17.90;;;16.00;;
24223;SDS011;12359;49.716;9.212;2022-08-19T02:11:34;19.80;;;17.65;;
24223;SDS011;12359;49.716;9.212;2022-08-19T02:14:02;21.50;;;16.10;;
24223;SDS011;12359;49.716;9.212;2022-08-19T02:16:29;16.73;;;14.77;;
24223;SDS011;12359;49.716;9.212;2022-08-19T02:18:55;19.88;;;17.05;;
24223;SDS011;12359;49.716;9.212;2022-08-19T02:21:23;20.85;;;17.73;;
24223;SDS011;12359;49.716;9.212;2022-08-19T02:23:49;19.48;;;16.23;;
24223;SDS011;12359;49.716;9.212;2022-08-19T02:26:15;18.42;;;16.38;;
24223;SDS011;12359;49.716;9.212;2022-08-19T02:28:42;18.88;;;16.40;;
24223;SDS011;12359;49.716;9.212;2022-08-19T02:31:15;18.92;;;16.80;;
24223;SDS011;12359;49.716;9.212;2022-08-19T02:36:10;20.05;;;16.83;;
24223;SDS011;12359;49.716;9.212;2022-08-19T02:38:38;19.40;;;15.65;;
24223;SDS011;12359;49.716;9.212;2022-08-19T02:41:05;19.08;;;16.17;;
24223;SDS011;12359;49.716;9.212;2022-08-19T02:43:35;19.85;;;17.35;;
24223;SDS011;12359;49.716;9.212;2022-08-19T02:46:01;19.88;;;17.77;;
24223;SDS011;12359;49.716;9.212;2022-08-19T02:49:03;21.42;;;17.63;;
24223;SDS011;12359;49.716;9.212;2022-08-19T02:51:35;20.65;;;18.33;;
24223;SDS011;12359;49.716;9.212;2022-08-19T02:54:03;20.95;;;18.05;;
24223;SDS011;12359;49.716;9.212;2022-08-19T02:56:29;21.40;;;18.52;;
24223;SDS011;12359;49.716;9.212;2022-08-19T02:58:56;21.27;;;18.17;;
24223;SDS011;12359;49.716;9.212;2022-08-19T03:01:27;22.67;;;18.70;;
24223;SDS011;12359;49.716;9.212;2022-08-19T03:03:55;22.98;;;18.50;;
24223;SDS011;12359;49.716;9.212;2022-08-19T03:06:21;23.08;;;17.60;;
24223;SDS011;12359;49.716;9.212;2022-08-19T03:08:48;21.33;;;17.77;;
24223;SDS011;12359;49.716;9.212;2022-08-19T03:11:15;22.58;;;17.98;;
24223;SDS011;12359;49.716;9.212;2022-08-19T03:13:43;19.38;;;16.45;;
24223;SDS011;12359;49.716;9.212;2022-08-19T03:16:09;21.98;;;17.73;;
24223;SDS011;12359;49.716;9.212;2022-08-19T03:18:35;19.23;;;16.23;;
24223;SDS011;12359;49.716;9.212;2022-08-19T03:21:01;22.02;;;17.42;;
24223;SDS011;12359;49.716;9.212;2022-08-19T03:23:27;22.15;;;17.77;;
24223;SDS011;12359;49.716;9.212;2022-08-19T03:25:53;24.77;;;18.65;;
24223;SDS011;12359;49.716;9.212;2022-08-19T03:28:19;20.77;;;17.40;;
24223;SDS011;12359;49.716;9.212;2022-08-19T03:31:02;23.40;;;18.52;;
24223;SDS011;12359;49.716;9.212;2022-08-19T03:36:05;19.95;;;17.33;;
24223;SDS011;12359;49.716;9.212;2022-08-19T03:38:35;25.35;;;19.52;;
24223;SDS011;12359;49.716;9.212;2022-08-19T03:41:06;22.48;;;17.90;;
24223;SDS011;12359;49.716;9.212;2022-08-19T03:43:34;20.63;;;17.13;;
24223;SDS011;12359;49.716;9.212;2022-08-19T03:46:05;21.25;;;17.27;;
24223;SDS011;12359;49.716;9.212;2022-08-19T03:48:33;19.45;;;16.30;;
24223;SDS011;12359;49.716;9.212;2022-08-19T03:51:00;20.08;;;17.75;;
24223;SDS011;12359;49.716;9.212;2022-08-19T03:53:29;24.13;;;19.00;;
24223;SDS011;12359;49.716;9.212;2022-08-19T03:55:55;19.92;;;16.10;;
24223;SDS011;12359;49.716;9.212;2022-08-19T03:58:24;19.75;;;17.50;;
24223;SDS011;12359;49.716;9.212;2022-08-19T04:00:52;19.65;;;17.50;;
24223;SDS011;12359;49.716;9.212;2022-08-19T04:03:18;22.23;;;16.98;;
24223;SDS011;12359;49.716;9.212;2022-08-19T04:05:44;22.52;;;17.08;;
24223;SDS011;12359;49.716;9.212;2022-08-19T04:08:11;21.33;;;18.63;;
24223;SDS011;12359;49.716;9.212;2022-08-19T04:10:37;22.65;;;17.02;;
24223;SDS011;12359;49.716;9.212;2022-08-19T04:13:03;21.20;;;16.48;;
24223;SDS011;12359;49.716;9.212;2022-08-19T04:15:31;22.73;;;15.85;;
24223;SDS011;12359;49.716;9.212;2022-08-19T04:18:03;21.60;;;16.80;;
24223;SDS011;12359;49.716;9.212;2022-08-19T04:20:31;19.38;;;17.02;;
24223;SDS011;12359;49.716;9.212;2022-08-19T04:22:58;19.38;;;16.83;;
24223;SDS011;12359;49.716;9.212;2022-08-19T04:25:23;23.42;;;17.23;;
24223;SDS011;12359;49.716;9.212;2022-08-19T04:27:49;21.48;;;15.95;;
24223;SDS011;12359;49.716;9.212;2022-08-19T04:30:14;24.65;;;18.65;;
24223;SDS011;12359;49.716;9.212;2022-08-19T04:32:42;25.08;;;18.40;;
24223;SDS011;12359;49.716;9.212;2022-08-19T04:35:08;21.10;;;17.80;;
24223;SDS011;12359;49.716;9.212;2022-08-19T04:37:34;22.83;;;16.48;;
24223;SDS011;12359;49.716;9.212;2022-08-19T04:40:00;21.42;;;16.55;;
24223;SDS011;12359;49.716;9.212;2022-08-19T04:42:44;19.35;;;16.73;;
24223;SDS011;12359;49.716;9.212;2022-08-19T04:45:12;19.25;;;16.25;;
24223;SDS011;12359;49.716;9.212;2022-08-19T04:47:39;18.02;;;15.63;;
24223;SDS011;12359;49.716;9.212;2022-08-19T04:50:07;19.58;;;15.23;;
24223;SDS011;12359;49.716;9.212;2022-08-19T04:52:35;21.45;;;17.63;;
24223;SDS011;12359;49.716;9.212;2022-08-19T04:55:02;21.60;;;16.30;;
24223;SDS011;12359;49.716;9.212;2022-08-19T04:57:30;16.63;;;14.73;;
24223;SDS011;12359;49.716;9.212;2022-08-19T04:59:56;17.95;;;15.50;;
24223;SDS011;12359;49.716;9.212;2022-08-19T05:02:22;18.33;;;14.52;;
24223;SDS011;12359;49.716;9.212;2022-08-19T05:04:49;17.73;;;15.82;;
24223;SDS011;12359;49.716;9.212;2022-08-19T05:07:15;23.40;;;16.33;;
24223;SDS011;12359;49.716;9.212;2022-08-19T05:09:41;23.40;;;15.60;;
24223;SDS011;12359;49.716;9.212;2022-08-19T05:12:07;21.48;;;16.70;;
24223;SDS011;12359;49.716;9.212;2022-08-19T05:14:33;19.70;;;17.60;;
24223;SDS011;12359;49.716;9.212;2022-08-19T05:17:01;28.05;;;16.40;;
24223;SDS011;12359;49.716;9.212;2022-08-19T05:19:27;17.73;;;15.70;;
24223;SDS011;12359;49.716;9.212;2022-08-19T05:22:11;23.52;;;15.73;;
24223;SDS011;12359;49.716;9.212;2022-08-19T05:24:55;22.23;;;16.38;;
24223;SDS011;12359;49.716;9.212;2022-08-19T05:27:21;20.33;;;15.10;;
24223;SDS011;12359;49.716;9.212;2022-08-19T05:29:47;19.15;;;14.07;;
24223;SDS011;12359;49.716;9.212;2022-08-19T05:32:12;18.48;;;15.43;;
24223;SDS011;12359;49.716;9.212;2022-08-19T05:34:38;16.92;;;13.57;;
24223;SDS011;12359;49.716;9.212;2022-08-19T05:37:04;18.88;;;15.00;;
24223;SDS011;12359;49.716;9.212;2022-08-19T05:39:33;17.35;;;13.85;;
24223;SDS011;12359;49.716;9.212;2022-08-19T05:42:01;17.13;;;15.30;;
24223;SDS011;12359;49.716;9.212;2022-08-19T05:44:30;15.70;;;13.93;;
24223;SDS011;12359;49.716;9.212;2022-08-19T05:46:58;17.08;;;13.73;;
24223;SDS011;12359;49.716;9.212;2022-08-19T05:49:26;19.77;;;14.95;;
24223;SDS011;12359;49.716;9.212;2022-08-19T05:51:52;20.90;;;14.43;;
24223;SDS011;12359;49.716;9.212;2022-08-19T05:54:20;16.48;;;13.15;;
24223;SDS011;12359;49.716;9.212;2022-08-19T05:56:47;16.77;;;13.02;;
24223;SDS011;12359;49.716;9.212;2022-08-19T05:59:15;19.23;;;13.38;;
24223;SDS011;12359;49.716;9.212;2022-08-19T06:01:43;17.42;;;13.77;;
24223;SDS011;12359;49.716;9.212;2022-08-19T06:04:10;17.85;;;15.15;;
24223;SDS011;12359;49.716;9.212;2022-08-19T06:06:38;18.30;;;13.65;;
24223;SDS011;12359;49.716;9.212;2022-08-19T06:09:05;15.68;;;13.75;;
24223;SDS011;12359;49.716;9.212;2022-08-19T06:14:05;19.83;;;14.15;;
24223;SDS011;12359;49.716;9.212;2022-08-19T06:16:34;17.25;;;13.32;;
24223;SDS011;12359;49.716;9.212;2022-08-19T06:19:02;19.23;;;13.80;;
24223;SDS011;12359;49.716;9.212;2022-08-19T06:21:31;14.63;;;12.18;;
24223;SDS011;12359;49.716;9.212;2022-08-19T06:23:58;14.23;;;12.73;;
24223;SDS011;12359;49.716;9.212;2022-08-19T06:26:24;16.50;;;13.13;;
24223;SDS011;12359;49.716;9.212;2022-08-19T06:28:50;26.38;;;14.45;;
24223;SDS011;12359;49.716;9.212;2022-08-19T06:31:17;18.27;;;13.35;;
24223;SDS011;12359;49.716;9.212;2022-08-19T06:33:45;15.10;;;13.20;;
24223;SDS011;12359;49.716;9.212;2022-08-19T06:36:22;16.00;;;12.30;;
24223;SDS011;12359;49.716;9.212;2022-08-19T06:38:56;16.73;;;13.50;;
24223;SDS011;12359;49.716;9.212;2022-08-19T06:41:24;20.50;;;14.23;;
24223;SDS011;12359;49.716;9.212;2022-08-19T06:43:51;16.85;;;13.35;;
24223;SDS011;12359;49.716;9.212;2022-08-19T06:46:17;16.60;;;12.60;;
24223;SDS011;12359;49.716;9.212;2022-08-19T06:48:44;16.92;;;12.45;;
24223;SDS011;12359;49.716;9.212;2022-08-19T06:51:11;13.93;;;11.93;;
24223;SDS011;12359;49.716;9.212;2022-08-19T06:53:40;13.07;;;11.68;;
24223;SDS011;12359;49.716;9.212;2022-08-19T06:56:11;14.93;;;12.73;;
24223;SDS011;12359;49.716;9.212;2022-08-19T06:58:37;15.73;;;12.85;;
24223;SDS011;12359;49.716;9.212;2022-08-19T07:01:04;18.42;;;12.15;;
24223;SDS011;12359;49.716;9.212;2022-08-19T07:03:30;14.35;;;11.10;;
24223;SDS011;12359;49.716;9.212;2022-08-19T07:06:02;16.38;;;12.13;;
24223;SDS011;12359;49.716;9.212;2022-08-19T07:08:33;14.73;;;12.35;;
24223;SDS011;12359;49.716;9.212;2022-08-19T07:10:59;13.57;;;11.93;;
24223;SDS011;12359;49.716;9.212;2022-08-19T07:13:25;14.55;;;11.60;;
24223;SDS011;12359;49.716;9.212;2022-08-19T07:15:51;13.18;;;11.40;;
24223;SDS011;12359;49.716;9.212;2022-08-19T07:18:18;15.80;;;12.75;;
24223;SDS011;12359;49.716;9.212;2022-08-19T07:20:46;12.48;;;11.23;;
24223;SDS011;12359;49.716;9.212;2022-08-19T07:23:13;16.67;;;11.57;;
24223;SDS011;12359;49.716;9.212;2022-08-19T07:25:39;13.80;;;12.15;;
24223;SDS011;12359;49.716;9.212;2022-08-19T07:28:05;14.05;;;11.13;;
24223;SDS011;12359;49.716;9.212;2022-08-19T07:30:32;18.27;;;11.48;;
24223;SDS011;12359;49.716;9.212;2022-08-19T07:33:01;17.13;;;11.00;;
24223;SDS011;12359;49.716;9.212;2022-08-19T07:35:26;15.73;;;12.48;;
24223;SDS011;12359;49.716;9.212;2022-08-19T07:37:53;12.38;;;11.05;;
24223;SDS011;12359;49.716;9.212;2022-08-19T07:40:19;14.32;;;10.10;;
24223;SDS011;12359;49.716;9.212;2022-08-19T07:42:44;13.43;;;11.85;;
24223;SDS011;12359;49.716;9.212;2022-08-19T07:45:10;12.63;;;10.57;;
24223;SDS011;12359;49.716;9.212;2022-08-19T07:47:36;11.38;;;10.20;;
24223;SDS011;12359;49.716;9.212;2022-08-19T07:50:03;12.95;;;10.23;;
24223;SDS011;12359;49.716;9.212;2022-08-19T07:52:31;13.27;;;10.85;;
24223;SDS011;12359;49.716;9.212;2022-08-19T07:54:57;11.70;;;10.18;;
24223;SDS011;12359;49.716;9.212;2022-08-19T07:57:24;12.35;;;10.75;;
24223;SDS011;12359;49.716;9.212;2022-08-19T07:59:50;19.80;;;11.43;;
24223;SDS011;12359;49.716;9.212;2022-08-19T08:02:16;12.52;;;10.23;;
24223;SDS011;12359;49.716;9.212;2022-08-19T08:04:41;13.32;;;10.40;;
24223;SDS011;12359;49.716;9.212;2022-08-19T08:07:26;16.38;;;10.90;;
24223;SDS011;12359;49.716;9.212;2022-08-19T08:10:10;12.05;;;10.43;;
24223;SDS011;12359;49.716;9.212;2022-08-19T08:12:38;11.77;;;10.07;;
24223;SDS011;12359;49.716;9.212;2022-08-19T08:15:10;12.55;;;9.55;;
24223;SDS011;12359;49.716;9.212;2022-08-19T08:17:41;11.52;;;10.32;;
24223;SDS011;12359;49.716;9.212;2022-08-19T08:20:08;10.77;;;9.57;;
24223;SDS011;12359;49.716;9.212;2022-08-19T08:22:35;15.68;;;10.15;;
24223;SDS011;12359;49.716;9.212;2022-08-19T08:25:22;17.92;;;9.55;;
24223;SDS011;12359;49.716;9.212;2022-08-19T08:27:48;9.43;;;8.20;;
24223;SDS011;12359;49.716;9.212;2022-08-19T08:30:22;16.52;;;9.18;;
24223;SDS011;12359;49.716;9.212;2022-08-19T08:32:50;10.35;;;8.55;;
24223;SDS011;12359;49.716;9.212;2022-08-19T08:35:17;11.18;;;8.57;;
24223;SDS011;12359;49.716;9.212;2022-08-19T08:37:45;11.30;;;9.43;;
24223;SDS011;12359;49.716;9.212;2022-08-19T08:40:33;12.95;;;8.90;;
24223;SDS011;12359;49.716;9.212;2022-08-19T08:43:28;9.30;;;8.27;;
24223;SDS011;12359;49.716;9.212;2022-08-19T08:46:10;8.40;;;7.60;;
24223;SDS011;12359;49.716;9.212;2022-08-19T08:51:34;8.95;;;7.60;;
24223;SDS011;12359;49.716;9.212;2022-08-19T08:54:06;15.50;;;8.00;;
24223;SDS011;12359;49.716;9.212;2022-08-19T08:56:35;10.25;;;8.07;;
24223;SDS011;12359;49.716;9.212;2022-08-19T08:59:04;9.93;;;7.30;;
24223;SDS011;12359;49.716;9.212;2022-08-19T09:01:35;7.57;;;6.80;;
24223;SDS011;12359;49.716;9.212;2022-08-19T09:04:04;11.75;;;7.78;;
24223;SDS011;12359;49.716;9.212;2022-08-19T09:09:43;9.13;;;7.00;;
24223;SDS011;12359;49.716;9.212;2022-08-19T09:15:17;7.45;;;6.03;;
24223;SDS011;12359;49.716;9.212;2022-08-19T09:17:48;6.05;;;5.55;;
24223;SDS011;12359;49.716;9.212;2022-08-19T09:20:21;8.32;;;6.32;;
24223;SDS011;12359;49.716;9.212;2022-08-19T09:22:48;8.02;;;6.28;;
24223;SDS011;12359;49.716;9.212;2022-08-19T09:25:18;6.78;;;6.10;;
24223;SDS011;12359;49.716;9.212;2022-08-19T09:27:49;11.43;;;5.07;;
24223;SDS011;12359;49.716;9.212;2022-08-19T09:30:18;6.95;;;5.35;;
24223;SDS011;12359;49.716;9.212;2022-08-19T09:32:49;7.43;;;5.80;;
24223;SDS011;12359;49.716;9.212;2022-08-19T09:35:20;9.02;;;4.95;;
24223;SDS011;12359;49.716;9.212;2022-08-19T09:37:48;8.02;;;4.40;;
24223;SDS011;12359;49.716;9.212;2022-08-19T09:40:15;6.53;;;4.07;;
24223;SDS011;12359;49.716;9.212;2022-08-19T09:42:42;5.13;;;4.53;;
24223;SDS011;12359;49.716;9.212;2022-08-19T09:45:09;4.93;;;3.95;;
24223;SDS011;12359;49.716;9.212;2022-08-19T09:47:36;4.97;;;2.92;;
24223;SDS011;12359;49.716;9.212;2022-08-19T09:50:06;4.45;;;3.05;;
24223;SDS011;12359;49.716;9.212;2022-08-19T09:52:34;6.72;;;3.08;;
24223;SDS011;12359;49.716;9.212;2022-08-19T09:55:02;5.53;;;3.75;;
24223;SDS011;12359;49.716;9.212;2022-08-19T09:57:29;4.85;;;3.92;;
24223;SDS011;12359;49.716;9.212;2022-08-19T09:59:55;7.20;;;4.35;;
24223;SDS011;12359;49.716;9.212;2022-08-19T10:02:21;7.78;;;4.07;;
24223;SDS011;12359;49.716;9.212;2022-08-19T10:04:46;4.32;;;3.92;;
24223;SDS011;12359;49.716;9.212;2022-08-19T10:07:31;8.00;;;3.55;;
24223;SDS011;12359;49.716;9.212;2022-08-19T10:09:56;3.53;;;3.22;;
24223;SDS011;12359;49.716;9.212;2022-08-19T10:12:22;5.03;;;4.05;;
24223;SDS011;12359;49.716;9.212;2022-08-19T10:14:48;4.22;;;3.83;;
24223;SDS011;12359;49.716;9.212;2022-08-19T10:17:16;5.45;;;4.55;;
24223;SDS011;12359;49.716;9.212;2022-08-19T10:19:42;4.13;;;3.72;;
24223;SDS011;12359;49.716;9.212;2022-08-19T10:22:08;5.40;;;3.90;;
24223;SDS011;12359;49.716;9.212;2022-08-19T10:24:39;7.38;;;3.58;;
24223;SDS011;12359;49.716;9.212;2022-08-19T10:27:06;3.10;;;2.80;;
24223;SDS011;12359;49.716;9.212;2022-08-19T10:29:32;5.85;;;3.53;;
24223;SDS011;12359;49.716;9.212;2022-08-19T10:32:03;5.40;;;3.47;;
24223;SDS011;12359;49.716;9.212;2022-08-19T10:34:33;11.18;;;2.88;;
24223;SDS011;12359;49.716;9.212;2022-08-19T10:37:01;2.63;;;2.40;;
24223;SDS011;12359;49.716;9.212;2022-08-19T10:39:30;6.50;;;4.05;;
24223;SDS011;12359;49.716;9.212;2022-08-19T10:41:57;2.83;;;2.63;;
24223;SDS011;12359;49.716;9.212;2022-08-19T10:44:23;3.15;;;2.75;;
24223;SDS011;12359;49.716;9.212;2022-08-19T10:46:49;2.92;;;2.70;;
24223;SDS011;12359;49.716;9.212;2022-08-19T10:49:15;2.90;;;2.70;;
24223;SDS011;12359;49.716;9.212;2022-08-19T10:51:41;6.10;;;4.45;;
24223;SDS011;12359;49.716;9.212;2022-08-19T10:54:25;3.05;;;2.47;;
24223;SDS011;12359;49.716;9.212;2022-08-19T10:57:11;4.90;;;3.30;;
24223;SDS011;12359;49.716;9.212;2022-08-19T10:59:37;6.03;;;3.20;;
24223;SDS011;12359;49.716;9.212;2022-08-19T11:02:05;3.47;;;2.88;;
24223;SDS011;12359;49.716;9.212;2022-08-19T11:04:34;10.68;;;3.50;;
24223;SDS011;12359;49.716;9.212;2022-08-19T11:07:00;4.88;;;3.28;;
24223;SDS011;12359;49.716;9.212;2022-08-19T11:09:26;5.72;;;2.90;;
24223;SDS011;12359;49.716;9.212;2022-08-19T11:11:53;4.30;;;3.13;;
24223;SDS011;12359;49.716;9.212;2022-08-19T11:14:19;3.13;;;2.92;;
24223;SDS011;12359;49.716;9.212;2022-08-19T11:16:46;3.17;;;2.75;;
24223;SDS011;12359;49.716;9.212;2022-08-19T11:19:14;3.95;;;3.10;;
24223;SDS011;12359;49.716;9.212;2022-08-19T11:21:44;2.70;;;2.50;;
24223;SDS011;12359;49.716;9.212;2022-08-19T11:24:16;4.60;;;2.17;;
24223;SDS011;12359;49.716;9.212;2022-08-19T11:26:45;3.80;;;2.63;;
24223;SDS011;12359;49.716;9.212;2022-08-19T11:29:13;3.72;;;2.83;;
24223;SDS011;12359;49.716;9.212;2022-08-19T11:31:43;6.78;;;4.85;;
24223;SDS011;12359;49.716;9.212;2022-08-19T11:34:12;3.38;;;2.65;;
24223;SDS011;12359;49.716;9.212;2022-08-19T11:36:40;2.72;;;2.50;;
24223;SDS011;12359;49.716;9.212;2022-08-19T11:39:09;3.00;;;2.70;;
24223;SDS011;12359;49.716;9.212;2022-08-19T11:41:37;4.82;;;3.42;;
24223;SDS011;12359;49.716;9.212;2022-08-19T11:44:03;4.53;;;2.50;;
24223;SDS011;12359;49.716;9.212;2022-08-19T11:46:30;2.42;;;2.22;;
24223;SDS011;12359;49.716;9.212;2022-08-19T11:48:56;2.45;;;2.25;;
24223;SDS011;12359;49.716;9.212;2022-08-19T11:51:24;3.65;;;2.10;;
24223;SDS011;12359;49.716;9.212;2022-08-19T11:53:51;4.18;;;2.90;;
24223;SDS011;12359;49.716;9.212;2022-08-19T11:56:18;3.75;;;3.35;;
24223;SDS011;12359;49.716;9.212;2022-08-19T11:58:44;6.82;;;3.30;;
24223;SDS011;12359;49.716;9.212;2022-08-19T12:01:12;6.47;;;3.17;;
24223;SDS011;12359;49.716;9.212;2022-08-19T12:03:42;4.82;;;3.08;;
24223;SDS011;12359;49.716;9.212;2022-08-19T12:06:14;4.28;;;3.88;;
24223;SDS011;12359;49.716;9.212;2022-08-19T12:08:48;3.10;;;2.90;;
24223;SDS011;12359;49.716;9.212;2022-08-19T12:11:14;3.42;;;3.10;;
24223;SDS011;12359;49.716;9.212;2022-08-19T12:13:40;5.18;;;3.15;;
24223;SDS011;12359;49.716;9.212;2022-08-19T12:16:13;3.08;;;2.78;;
24223;SDS011;12359;49.716;9.212;2022-08-19T12:18:40;5.82;;;2.95;;
24223;SDS011;12359;49.716;9.212;2022-08-19T12:21:11;3.92;;;3.22;;
24223;SDS011;12359;49.716;9.212;2022-08-19T12:23:38;3.22;;;2.90;;
24223;SDS011;12359;49.716;9.212;2022-08-19T12:26:10;4.15;;;2.70;;
24223;SDS011;12359;49.716;9.212;2022-08-19T12:28:36;3.35;;;3.00;;
24223;SDS011;12359;49.716;9.212;2022-08-19T12:31:03;4.40;;;3.40;;
24223;SDS011;12359;49.716;9.212;2022-08-19T12:33:29;4.63;;;3.22;;
24223;SDS011;12359;49.716;9.212;2022-08-19T12:35:59;4.70;;;3.83;;
24223;SDS011;12359;49.716;9.212;2022-08-19T12:38:26;5.20;;;3.70;;
24223;SDS011;12359;49.716;9.212;2022-08-19T12:40:55;4.75;;;4.28;;
24223;SDS011;12359;49.716;9.212;2022-08-19T12:43:21;4.07;;;3.50;;
24223;SDS011;12359;49.716;9.212;2022-08-19T12:45:46;8.05;;;3.67;;
24223;SDS011;12359;49.716;9.212;2022-08-19T12:48:12;5.53;;;3.65;;
24223;SDS011;12359;49.716;9.212;2022-08-19T12:50:39;4.72;;;4.22;;
24223;SDS011;12359;49.716;9.212;2022-08-19T12:53:06;4.50;;;3.95;;
24223;SDS011;12359;49.716;9.212;2022-08-19T12:55:32;6.10;;;4.05;;
24223;SDS011;12359;49.716;9.212;2022-08-19T12:57:58;4.30;;;3.90;;
24223;SDS011;12359;49.716;9.212;2022-08-19T13:00:26;8.32;;;5.07;;
24223;SDS011;12359;49.716;9.212;2022-08-19T13:02:52;5.80;;;4.20;;
24223;SDS011;12359;49.716;9.212;2022-08-19T13:05:23;4.85;;;4.10;;
24223;SDS011;12359;49.716;9.212;2022-08-19T13:07:51;9.52;;;4.55;;
24223;SDS011;12359;49.716;9.212;2022-08-19T13:10:23;4.80;;;4.30;;
24223;SDS011;12359;49.716;9.212;2022-08-19T13:12:52;5.22;;;4.70;;
24223;SDS011;12359;49.716;9.212;2022-08-19T13:15:19;6.05;;;4.55;;
24223;SDS011;12359;49.716;9.212;2022-08-19T13:17:47;4.57;;;4.18;;
24223;SDS011;12359;49.716;9.212;2022-08-19T13:20:15;5.72;;;4.05;;
24223;SDS011;12359;49.716;9.212;2022-08-19T13:22:43;4.43;;;3.97;;
24223;SDS011;12359;49.716;9.212;2022-08-19T13:25:11;6.28;;;3.80;;
24223;SDS011;12359;49.716;9.212;2022-08-19T13:27:37;5.00;;;4.07;;
24223;SDS011;12359;49.716;9.212;2022-08-19T13:30:05;4.88;;;4.32;;
24223;SDS011;12359;49.716;9.212;2022-08-19T13:32:52;6.80;;;4.40;;
24223;SDS011;12359;49.716;9.212;2022-08-19T13:35:51;3.50;;;3.20;;
24223;SDS011;12359;49.716;9.212;2022-08-19T13:38:22;4.40;;;4.00;;
24223;SDS011;12359;49.716;9.212;2022-08-19T13:40:49;6.13;;;4.25;;
24223;SDS011;12359;49.716;9.212;2022-08-19T13:43:17;4.45;;;3.92;;
24223;SDS011;12359;49.716;9.212;2022-08-19T13:45:44;5.90;;;3.90;;
24223;SDS011;12359;49.716;9.212;2022-08-19T13:48:10;3.90;;;3.60;;
24223;SDS011;12359;49.716;9.212;2022-08-19T13:50:40;3.45;;;3.15;;
24223;SDS011;12359;49.716;9.212;2022-08-19T13:53:08;7.38;;;4.18;;
24223;SDS011;12359;49.716;9.212;2022-08-19T13:55:36;4.40;;;3.88;;
24223;SDS011;12359;49.716;9.212;2022-08-19T13:58:03;4.78;;;4.28;;
24223;SDS011;12359;49.716;9.212;2022-08-19T14:00:34;5.35;;;3.58;;
24223;SDS011;12359;49.716;9.212;2022-08-19T14:03:02;3.78;;;3.47;;
24223;SDS011;12359;49.716;9.212;2022-08-19T14:05:29;4.88;;;3.38;;
24223;SDS011;12359;49.716;9.212;2022-08-19T14:07:56;4.90;;;3.63;;
24223;SDS011;12359;49.716;9.212;2022-08-19T14:10:22;3.38;;;3.08;;
24223;SDS011;12359;49.716;9.212;2022-08-19T14:12:49;3.53;;;3.03;;
24223;SDS011;12359;49.716;9.212;2022-08-19T14:15:17;6.10;;;4.10;;
24223;SDS011;12359;49.716;9.212;2022-08-19T14:17:43;4.28;;;3.78;;
24223;SDS011;12359;49.716;9.212;2022-08-19T14:20:11;3.33;;;3.13;;
24223;SDS011;12359;49.716;9.212;2022-08-19T14:22:39;6.55;;;4.63;;
24223;SDS011;12359;49.716;9.212;2022-08-19T14:25:07;4.95;;;4.28;;
24223;SDS011;12359;49.716;9.212;2022-08-19T14:27:36;6.00;;;5.13;;
24223;SDS011;12359;49.716;9.212;2022-08-19T14:30:04;7.03;;;6.30;;
24223;SDS011;12359;49.716;9.212;2022-08-19T14:32:31;6.45;;;5.65;;
24223;SDS011;12359;49.716;9.212;2022-08-19T14:34:57;5.82;;;5.22;;
24223;SDS011;12359;49.716;9.212;2022-08-19T14:37:23;8.75;;;6.00;;
24223;SDS011;12359;49.716;9.212;2022-08-19T14:39:50;6.00;;;5.40;;
24223;SDS011;12359;49.716;9.212;2022-08-19T14:42:15;6.68;;;6.07;;
24223;SDS011;12359;49.716;9.212;2022-08-19T14:44:41;8.02;;;6.63;;
24223;SDS011;12359;49.716;9.212;2022-08-19T14:47:08;6.90;;;6.00;;
24223;SDS011;12359;49.716;9.212;2022-08-19T14:49:34;10.23;;;5.47;;
24223;SDS011;12359;49.716;9.212;2022-08-19T14:52:00;5.63;;;5.13;;
24223;SDS011;12359;49.716;9.212;2022-08-19T14:54:25;5.78;;;5.28;;
24223;SDS011;12359;49.716;9.212;2022-08-19T14:56:51;6.53;;;5.30;;
24223;SDS011;12359;49.716;9.212;2022-08-19T14:59:17;9.15;;;6.55;;